Airfield :
LOGIN :

Register | Disclaimer

   EN    FR    IT 

 










Legend :    VFR   Marginal VFR   IFR   Intensive IFR   Very Intensive IFR
Visi :
Ceiling :
>= 8 km
>= 3000ft
5 to 8 km
1000 to 3000 ft
1500m to 5 km
500 to 1000 ft
800 to 1500m
200 to 500 ft
< 800m
< 200 ft
Symbols :   Thunderstorms  Fog  Heavy snow  Heavy precipitations  Wind > 20 kt
SIGMETs :     Misc.  Thunderstorms  Icing  Turbulence  Mountain Waves  Volcanic Ashes







- Airport Elevation : 160 ft
- IATA code : FMO


EDDG - Münster Osnabrück Int.

CURRENT METAR :
  • 251150Z 26018KT 9999 SCT035TCU BKN060 13/05 Q1010 NOSIG

EXPIRED METARs :
  • 251120Z 26016KT 9999 SCT033 BKN044 13/06 Q1010 NOSIG
  • 251050Z 27015KT 9999 SCT033TCU BKN050 12/06 Q1010 NOSIG
  • 251020Z 28010KT 250V310 9999 -SHRA SCT035TCU BKN054 12/07 Q1010 NOSIG
  • 250950Z 27016KT 250V310 9999 -SHRA SCT035TCU BKN040 12/06 Q1009 NOSIG
  • 250920Z 28014KT 250V310 9999 SCT030TCU BKN046 13/07 Q1009 NOSIG

TAF TAF EDDG
Valid from the 25 at 12:00 until the 26 at 12:00 UTC


251100Z 2512/2612 27014KT 9999 SCT040
PROB30
TEMPO 2512/2517 28015G25KT SHRA BKN025TCU
BECMG 2517/2519 23009KT
TEMPO 2600/2612 28015G25KT SHRA BKN015CB
PROB30
TEMPO 2603/2609 BKN010
BECMG 2606/2609 24015G25KT
No reported NOTAMs for that airfield.



MET'MAP, your aeronautical weather chart ! - Copyright ORBIFLY December 2007 - Disclaimer

ORBIFLY MET'MAP TEAM :

Programming & Development : Alexandra Zaïnal
Concept & Development : Baudouin d'Aumeries
Co-Development & Prog : Marc-Olivier Méhu
Technical & hardware support : Manuel Goepfert

Contact : metmap@orbifly.com




SOURCES & CREDITS :

   NOAA